sensor_id;sensor_type;location;lat;lon;timestamp;P1;durP1;ratioP1;P2;durP2;ratioP2
6665;SDS011;3369;49.906;8.598;2022-11-15T02:39:37;2.83;;;2.63;;
6665;SDS011;3369;49.906;8.598;2022-11-15T02:45:30;3.40;;;2.90;;
6665;SDS011;3369;49.906;8.598;2022-11-15T02:48:00;2.70;;;2.50;;
6665;SDS011;3369;49.906;8.598;2022-11-15T02:50:28;4.60;;;2.63;;
6665;SDS011;3369;49.906;8.598;2022-11-15T02:52:55;3.00;;;2.80;;
6665;SDS011;3369;49.906;8.598;2022-11-15T02:55:34;2.60;;;2.40;;
6665;SDS011;3369;49.906;8.598;2022-11-15T03:09:28;2.50;;;2.30;;
6665;SDS011;3369;49.906;8.598;2022-11-15T03:11:58;3.20;;;2.60;;
6665;SDS011;3369;49.906;8.598;2022-11-15T03:14:33;3.63;;;2.40;;
6665;SDS011;3369;49.906;8.598;2022-11-15T03:17:15;2.80;;;2.60;;
6665;SDS011;3369;49.906;8.598;2022-11-15T03:19:47;2.53;;;2.33;;
6665;SDS011;3369;49.906;8.598;2022-11-15T03:22:16;3.27;;;2.80;;
6665;SDS011;3369;49.906;8.598;2022-11-15T03:24:45;3.40;;;3.10;;
6665;SDS011;3369;49.906;8.598;2022-11-15T03:27:15;3.07;;;2.87;;
6665;SDS011;3369;49.906;8.598;2022-11-15T03:29:55;3.63;;;3.33;;
6665;SDS011;3369;49.906;8.598;2022-11-15T03:32:28;4.33;;;3.17;;
6665;SDS011;3369;49.906;8.598;2022-11-15T03:35:01;3.90;;;3.30;;
6665;SDS011;3369;49.906;8.598;2022-11-15T03:37:57;3.50;;;2.90;;
6665;SDS011;3369;49.906;8.598;2022-11-15T03:40:30;3.77;;;3.03;;
6665;SDS011;3369;49.906;8.598;2022-11-15T03:43:14;4.17;;;3.30;;
6665;SDS011;3369;49.906;8.598;2022-11-15T03:46:02;3.67;;;3.37;;
6665;SDS011;3369;49.906;8.598;2022-11-15T03:48:40;3.80;;;3.50;;
6665;SDS011;3369;49.906;8.598;2022-11-15T03:51:14;3.50;;;3.20;;
6665;SDS011;3369;49.906;8.598;2022-11-15T03:53:40;4.20;;;3.47;;
6665;SDS011;3369;49.906;8.598;2022-11-15T03:56:06;4.10;;;3.40;;
6665;SDS011;3369;49.906;8.598;2022-11-15T03:58:32;3.27;;;2.97;;
6665;SDS011;3369;49.906;8.598;2022-11-15T04:00:57;3.53;;;3.23;;
6665;SDS011;3369;49.906;8.598;2022-11-15T04:03:24;3.97;;;3.37;;
6665;SDS011;3369;49.906;8.598;2022-11-15T04:05:50;3.97;;;3.13;;
6665;SDS011;3369;49.906;8.598;2022-11-15T04:08:16;3.10;;;2.90;;
6665;SDS011;3369;49.906;8.598;2022-11-15T04:10:41;3.17;;;2.83;;
6665;SDS011;3369;49.906;8.598;2022-11-15T04:13:07;3.10;;;2.80;;
6665;SDS011;3369;49.906;8.598;2022-11-15T04:15:33;3.07;;;2.73;;
6665;SDS011;3369;49.906;8.598;2022-11-15T04:17:59;3.30;;;3.00;;
6665;SDS011;3369;49.906;8.598;2022-11-15T04:20:26;6.00;;;3.50;;
6665;SDS011;3369;49.906;8.598;2022-11-15T04:23:12;3.27;;;2.97;;
6665;SDS011;3369;49.906;8.598;2022-11-15T04:26:03;3.73;;;3.33;;
6665;SDS011;3369;49.906;8.598;2022-11-15T04:28:30;3.50;;;3.20;;
6665;SDS011;3369;49.906;8.598;2022-11-15T04:30:56;4.10;;;3.30;;
6665;SDS011;3369;49.906;8.598;2022-11-15T04:33:22;6.30;;;3.80;;
6665;SDS011;3369;49.906;8.598;2022-11-15T04:35:48;4.73;;;3.27;;
6665;SDS011;3369;49.906;8.598;2022-11-15T04:38:33;3.87;;;3.47;;
6665;SDS011;3369;49.906;8.598;2022-11-15T04:40:59;4.10;;;3.50;;
6665;SDS011;3369;49.906;8.598;2022-11-15T04:43:24;3.67;;;3.33;;
6665;SDS011;3369;49.906;8.598;2022-11-15T04:45:50;3.90;;;3.50;;
6665;SDS011;3369;49.906;8.598;2022-11-15T04:48:16;3.57;;;3.27;;
6665;SDS011;3369;49.906;8.598;2022-11-15T04:50:41;3.57;;;3.27;;
6665;SDS011;3369;49.906;8.598;2022-11-15T04:53:07;3.43;;;3.13;;
6665;SDS011;3369;49.906;8.598;2022-11-15T04:55:32;3.93;;;3.53;;
6665;SDS011;3369;49.906;8.598;2022-11-15T04:58:01;5.30;;;3.50;;
6665;SDS011;3369;49.906;8.598;2022-11-15T05:00:28;4.17;;;3.30;;
6665;SDS011;3369;49.906;8.598;2022-11-15T05:02:55;3.67;;;3.23;;
6665;SDS011;3369;49.906;8.598;2022-11-15T05:05:39;4.97;;;3.80;;
6665;SDS011;3369;49.906;8.598;2022-11-15T05:08:05;4.67;;;4.10;;
6665;SDS011;3369;49.906;8.598;2022-11-15T05:10:31;7.23;;;4.53;;
6665;SDS011;3369;49.906;8.598;2022-11-15T05:12:56;4.87;;;4.10;;
6665;SDS011;3369;49.906;8.598;2022-11-15T05:15:22;4.93;;;4.37;;
6665;SDS011;3369;49.906;8.598;2022-11-15T05:17:48;5.20;;;4.37;;
6665;SDS011;3369;49.906;8.598;2022-11-15T05:20:13;6.73;;;4.70;;
6665;SDS011;3369;49.906;8.598;2022-11-15T05:22:39;4.50;;;4.10;;
6665;SDS011;3369;49.906;8.598;2022-11-15T05:25:05;5.73;;;4.57;;
6665;SDS011;3369;49.906;8.598;2022-11-15T05:27:32;4.90;;;4.40;;
6665;SDS011;3369;49.906;8.598;2022-11-15T05:29:58;6.10;;;4.80;;
6665;SDS011;3369;49.906;8.598;2022-11-15T05:32:23;5.40;;;4.60;;
6665;SDS011;3369;49.906;8.598;2022-11-15T05:34:50;7.83;;;4.87;;
6665;SDS011;3369;49.906;8.598;2022-11-15T05:37:16;8.50;;;5.50;;
6665;SDS011;3369;49.906;8.598;2022-11-15T05:39:42;6.20;;;4.93;;
6665;SDS011;3369;49.906;8.598;2022-11-15T05:42:11;5.13;;;4.50;;
6665;SDS011;3369;49.906;8.598;2022-11-15T05:44:39;5.00;;;4.50;;
6665;SDS011;3369;49.906;8.598;2022-11-15T05:47:08;4.67;;;4.00;;
6665;SDS011;3369;49.906;8.598;2022-11-15T05:49:36;5.37;;;4.70;;
6665;SDS011;3369;49.906;8.598;2022-11-15T05:52:06;7.30;;;4.60;;
6665;SDS011;3369;49.906;8.598;2022-11-15T05:54:33;6.57;;;4.50;;
6665;SDS011;3369;49.906;8.598;2022-11-15T05:57:00;4.83;;;4.37;;
6665;SDS011;3369;49.906;8.598;2022-11-15T05:59:28;5.67;;;4.53;;
6665;SDS011;3369;49.906;8.598;2022-11-15T06:01:55;4.20;;;3.80;;
6665;SDS011;3369;49.906;8.598;2022-11-15T06:04:21;5.37;;;3.90;;
6665;SDS011;3369;49.906;8.598;2022-11-15T06:06:47;5.63;;;4.00;;
6665;SDS011;3369;49.906;8.598;2022-11-15T06:09:12;4.57;;;4.17;;
6665;SDS011;3369;49.906;8.598;2022-11-15T06:11:38;5.83;;;4.23;;
6665;SDS011;3369;49.906;8.598;2022-11-15T06:14:04;4.77;;;3.83;;
6665;SDS011;3369;49.906;8.598;2022-11-15T06:16:29;5.20;;;4.00;;
6665;SDS011;3369;49.906;8.598;2022-11-15T06:18:55;4.13;;;3.73;;
6665;SDS011;3369;49.906;8.598;2022-11-15T06:21:21;10.33;;;9.33;;
6665;SDS011;3369;49.906;8.598;2022-11-15T06:23:47;14.20;;;12.40;;
6665;SDS011;3369;49.906;8.598;2022-11-15T06:26:12;17.37;;;15.80;;
6665;SDS011;3369;49.906;8.598;2022-11-15T06:28:38;23.90;;;21.90;;
6665;SDS011;3369;49.906;8.598;2022-11-15T06:31:04;25.10;;;22.87;;
6665;SDS011;3369;49.906;8.598;2022-11-15T06:33:30;20.67;;;18.97;;
6665;SDS011;3369;49.906;8.598;2022-11-15T06:35:59;15.73;;;14.43;;
6665;SDS011;3369;49.906;8.598;2022-11-15T06:38:29;14.10;;;12.83;;
6665;SDS011;3369;49.906;8.598;2022-11-15T06:40:55;12.33;;;11.13;;
6665;SDS011;3369;49.906;8.598;2022-11-15T06:43:25;8.87;;;8.13;;
6665;SDS011;3369;49.906;8.598;2022-11-15T06:45:51;7.13;;;6.33;;
6665;SDS011;3369;49.906;8.598;2022-11-15T06:48:16;5.23;;;4.73;;
6665;SDS011;3369;49.906;8.598;2022-11-15T06:50:42;4.60;;;4.20;;
6665;SDS011;3369;49.906;8.598;2022-11-15T06:53:08;5.17;;;4.13;;
6665;SDS011;3369;49.906;8.598;2022-11-15T06:55:33;4.20;;;3.73;;
6665;SDS011;3369;49.906;8.598;2022-11-15T06:57:59;4.80;;;3.53;;
6665;SDS011;3369;49.906;8.598;2022-11-15T07:00:24;3.73;;;3.43;;
6665;SDS011;3369;49.906;8.598;2022-11-15T07:02:50;3.93;;;3.53;;
6665;SDS011;3369;49.906;8.598;2022-11-15T07:05:16;4.27;;;3.87;;
6665;SDS011;3369;49.906;8.598;2022-11-15T07:07:42;4.70;;;4.07;;
6665;SDS011;3369;49.906;8.598;2022-11-15T07:10:07;5.70;;;4.07;;
6665;SDS011;3369;49.906;8.598;2022-11-15T07:12:34;5.00;;;4.00;;
6665;SDS011;3369;49.906;8.598;2022-11-15T07:14:59;4.27;;;3.87;;
6665;SDS011;3369;49.906;8.598;2022-11-15T07:17:25;4.77;;;4.13;;
6665;SDS011;3369;49.906;8.598;2022-11-15T07:19:50;5.20;;;3.80;;
6665;SDS011;3369;49.906;8.598;2022-11-15T07:22:16;4.70;;;3.90;;
6665;SDS011;3369;49.906;8.598;2022-11-15T07:24:42;6.97;;;4.63;;
6665;SDS011;3369;49.906;8.598;2022-11-15T07:27:07;6.23;;;5.63;;
6665;SDS011;3369;49.906;8.598;2022-11-15T07:29:33;5.53;;;4.63;;
6665;SDS011;3369;49.906;8.598;2022-11-15T07:31:58;4.83;;;4.33;;
6665;SDS011;3369;49.906;8.598;2022-11-15T07:34:24;4.90;;;4.43;;
6665;SDS011;3369;49.906;8.598;2022-11-15T07:36:50;4.80;;;4.30;;
6665;SDS011;3369;49.906;8.598;2022-11-15T07:39:15;5.00;;;4.50;;
6665;SDS011;3369;49.906;8.598;2022-11-15T07:41:41;5.00;;;4.20;;
6665;SDS011;3369;49.906;8.598;2022-11-15T07:44:08;6.00;;;3.93;;
6665;SDS011;3369;49.906;8.598;2022-11-15T07:46:34;4.53;;;4.00;;
6665;SDS011;3369;49.906;8.598;2022-11-15T07:48:59;4.20;;;3.80;;
6665;SDS011;3369;49.906;8.598;2022-11-15T07:51:25;4.70;;;4.20;;
6665;SDS011;3369;49.906;8.598;2022-11-15T07:53:50;5.27;;;3.80;;
6665;SDS011;3369;49.906;8.598;2022-11-15T07:56:16;5.97;;;3.90;;
6665;SDS011;3369;49.906;8.598;2022-11-15T07:58:42;4.87;;;4.10;;
6665;SDS011;3369;49.906;8.598;2022-11-15T08:01:08;5.53;;;4.00;;
6665;SDS011;3369;49.906;8.598;2022-11-15T08:03:35;4.33;;;3.83;;
6665;SDS011;3369;49.906;8.598;2022-11-15T08:06:01;5.43;;;3.63;;
6665;SDS011;3369;49.906;8.598;2022-11-15T08:08:27;6.60;;;4.23;;
6665;SDS011;3369;49.906;8.598;2022-11-15T08:10:53;3.93;;;3.53;;
6665;SDS011;3369;49.906;8.598;2022-11-15T08:13:19;3.97;;;3.57;;
6665;SDS011;3369;49.906;8.598;2022-11-15T08:15:45;3.50;;;3.10;;
6665;SDS011;3369;49.906;8.598;2022-11-15T08:18:11;4.17;;;3.60;;
6665;SDS011;3369;49.906;8.598;2022-11-15T08:20:39;4.97;;;3.70;;
6665;SDS011;3369;49.906;8.598;2022-11-15T08:23:05;5.47;;;3.97;;
6665;SDS011;3369;49.906;8.598;2022-11-15T08:25:32;5.73;;;3.80;;
6665;SDS011;3369;49.906;8.598;2022-11-15T08:27:59;6.57;;;4.47;;
6665;SDS011;3369;49.906;8.598;2022-11-15T08:30:27;4.43;;;3.40;;
6665;SDS011;3369;49.906;8.598;2022-11-15T08:32:53;3.83;;;3.07;;
6665;SDS011;3369;49.906;8.598;2022-11-15T08:35:21;4.73;;;3.47;;
6665;SDS011;3369;49.906;8.598;2022-11-15T08:37:46;3.80;;;3.50;;
6665;SDS011;3369;49.906;8.598;2022-11-15T08:40:12;3.87;;;3.10;;
6665;SDS011;3369;49.906;8.598;2022-11-15T08:42:39;4.67;;;3.73;;
6665;SDS011;3369;49.906;8.598;2022-11-15T08:45:05;4.13;;;2.90;;
6665;SDS011;3369;49.906;8.598;2022-11-15T08:47:32;4.10;;;3.33;;
6665;SDS011;3369;49.906;8.598;2022-11-15T08:49:58;3.50;;;3.20;;
6665;SDS011;3369;49.906;8.598;2022-11-15T08:52:24;5.30;;;3.57;;
6665;SDS011;3369;49.906;8.598;2022-11-15T08:54:49;5.23;;;3.77;;
6665;SDS011;3369;49.906;8.598;2022-11-15T08:57:15;10.47;;;4.47;;
6665;SDS011;3369;49.906;8.598;2022-11-15T08:59:41;4.43;;;4.00;;
6665;SDS011;3369;49.906;8.598;2022-11-15T09:02:10;4.70;;;4.20;;
6665;SDS011;3369;49.906;8.598;2022-11-15T09:04:43;4.40;;;3.47;;
6665;SDS011;3369;49.906;8.598;2022-11-15T09:07:12;4.40;;;3.67;;
6665;SDS011;3369;49.906;8.598;2022-11-15T09:09:39;6.30;;;4.07;;
6665;SDS011;3369;49.906;8.598;2022-11-15T09:12:05;4.27;;;3.70;;
6665;SDS011;3369;49.906;8.598;2022-11-15T09:14:31;4.43;;;4.03;;
6665;SDS011;3369;49.906;8.598;2022-11-15T09:16:57;4.70;;;3.80;;
6665;SDS011;3369;49.906;8.598;2022-11-15T09:19:23;5.70;;;3.97;;
6665;SDS011;3369;49.906;8.598;2022-11-15T09:21:49;5.00;;;4.50;;
6665;SDS011;3369;49.906;8.598;2022-11-15T09:24:14;9.90;;;4.33;;
6665;SDS011;3369;49.906;8.598;2022-11-15T09:26:40;4.47;;;4.07;;
6665;SDS011;3369;49.906;8.598;2022-11-15T09:29:06;4.23;;;3.83;;
6665;SDS011;3369;49.906;8.598;2022-11-15T09:31:31;4.57;;;4.17;;
6665;SDS011;3369;49.906;8.598;2022-11-15T09:33:57;4.27;;;3.87;;
6665;SDS011;3369;49.906;8.598;2022-11-15T09:36:23;4.93;;;4.20;;
6665;SDS011;3369;49.906;8.598;2022-11-15T09:38:49;4.83;;;4.00;;
6665;SDS011;3369;49.906;8.598;2022-11-15T09:49:41;5.30;;;3.30;;
6665;SDS011;3369;49.906;8.598;2022-11-15T09:52:07;7.10;;;4.07;;
6665;SDS011;3369;49.906;8.598;2022-11-15T09:54:35;4.77;;;3.90;;
6665;SDS011;3369;49.906;8.598;2022-11-15T10:03:07;4.33;;;3.77;;
6665;SDS011;3369;49.906;8.598;2022-11-15T10:05:36;6.57;;;4.33;;
6665;SDS011;3369;49.906;8.598;2022-11-15T10:11:01;3.97;;;3.57;;
6665;SDS011;3369;49.906;8.598;2022-11-15T10:13:41;6.40;;;3.53;;
6665;SDS011;3369;49.906;8.598;2022-11-15T10:19:03;4.03;;;3.57;;
6665;SDS011;3369;49.906;8.598;2022-11-15T10:24:39;5.30;;;3.80;;
6665;SDS011;3369;49.906;8.598;2022-11-15T10:27:11;4.40;;;4.00;;
6665;SDS011;3369;49.906;8.598;2022-11-15T10:29:46;6.23;;;4.40;;
6665;SDS011;3369;49.906;8.598;2022-11-15T10:32:14;5.13;;;4.27;;
6665;SDS011;3369;49.906;8.598;2022-11-15T10:34:41;6.13;;;4.93;;
6665;SDS011;3369;49.906;8.598;2022-11-15T10:37:07;7.20;;;5.37;;
6665;SDS011;3369;49.906;8.598;2022-11-15T10:39:33;10.27;;;6.10;;
6665;SDS011;3369;49.906;8.598;2022-11-15T10:42:14;7.20;;;5.90;;
6665;SDS011;3369;49.906;8.598;2022-11-15T10:44:42;7.10;;;5.23;;
6665;SDS011;3369;49.906;8.598;2022-11-15T10:47:26;7.63;;;5.63;;
6665;SDS011;3369;49.906;8.598;2022-11-15T10:50:04;5.70;;;4.67;;
6665;SDS011;3369;49.906;8.598;2022-11-15T10:52:33;6.63;;;5.27;;
6665;SDS011;3369;49.906;8.598;2022-11-15T10:55:06;8.13;;;4.73;;
6665;SDS011;3369;49.906;8.598;2022-11-15T11:00:45;4.67;;;4.17;;
6665;SDS011;3369;49.906;8.598;2022-11-15T11:03:33;4.27;;;3.87;;
6665;SDS011;3369;49.906;8.598;2022-11-15T11:06:04;5.20;;;4.00;;
6665;SDS011;3369;49.906;8.598;2022-11-15T11:08:34;5.90;;;4.03;;
6665;SDS011;3369;49.906;8.598;2022-11-15T11:11:01;4.77;;;3.80;;
6665;SDS011;3369;49.906;8.598;2022-11-15T11:13:29;5.10;;;4.40;;
6665;SDS011;3369;49.906;8.598;2022-11-15T11:18:38;4.53;;;3.80;;
6665;SDS011;3369;49.906;8.598;2022-11-15T11:21:11;4.83;;;3.93;;
6665;SDS011;3369;49.906;8.598;2022-11-15T11:29:30;4.77;;;3.50;;
6665;SDS011;3369;49.906;8.598;2022-11-15T11:35:11;4.60;;;3.53;;
6665;SDS011;3369;49.906;8.598;2022-11-15T11:40:16;4.43;;;3.80;;
6665;SDS011;3369;49.906;8.598;2022-11-15T11:42:53;4.73;;;3.10;;
6665;SDS011;3369;49.906;8.598;2022-11-15T11:48:13;3.67;;;3.30;;
6665;SDS011;3369;49.906;8.598;2022-11-15T11:50:42;2.93;;;2.57;;
6665;SDS011;3369;49.906;8.598;2022-11-15T11:56:07;3.27;;;3.00;;
6665;SDS011;3369;49.906;8.598;2022-11-15T11:58:44;3.43;;;3.03;;
6665;SDS011;3369;49.906;8.598;2022-11-15T12:12:15;3.33;;;2.50;;
6665;SDS011;3369;49.906;8.598;2022-11-15T12:17:35;3.40;;;2.47;;
6665;SDS011;3369;49.906;8.598;2022-11-15T12:20:04;3.53;;;2.33;;
6665;SDS011;3369;49.906;8.598;2022-11-15T12:22:53;2.93;;;2.57;;
6665;SDS011;3369;49.906;8.598;2022-11-15T12:25:35;2.57;;;2.37;;
6665;SDS011;3369;49.906;8.598;2022-11-15T12:31:06;4.27;;;2.33;;
6665;SDS011;3369;49.906;8.598;2022-11-15T12:33:58;2.97;;;2.10;;
6665;SDS011;3369;49.906;8.598;2022-11-15T12:36:39;2.70;;;2.23;;
6665;SDS011;3369;49.906;8.598;2022-11-15T12:39:08;1.80;;;1.70;;
6665;SDS011;3369;49.906;8.598;2022-11-15T12:41:38;2.97;;;1.70;;
6665;SDS011;3369;49.906;8.598;2022-11-15T12:44:10;2.73;;;1.83;;
6665;SDS011;3369;49.906;8.598;2022-11-15T13:04:46;5.30;;;1.70;;
6665;SDS011;3369;49.906;8.598;2022-11-15T13:10:00;3.97;;;1.70;;
6665;SDS011;3369;49.906;8.598;2022-11-15T13:28:01;1.70;;;1.60;;
6665;SDS011;3369;49.906;8.598;2022-11-15T13:30:34;1.93;;;1.60;;
6665;SDS011;3369;49.906;8.598;2022-11-15T13:33:01;1.70;;;1.60;;
6665;SDS011;3369;49.906;8.598;2022-11-15T13:35:36;2.27;;;2.07;;
6665;SDS011;3369;49.906;8.598;2022-11-15T13:38:05;2.10;;;1.70;;
6665;SDS011;3369;49.906;8.598;2022-11-15T13:40:35;1.50;;;1.40;;
6665;SDS011;3369;49.906;8.598;2022-11-15T13:43:23;2.10;;;1.50;;
6665;SDS011;3369;49.906;8.598;2022-11-15T13:49:02;1.47;;;1.30;;
6665;SDS011;3369;49.906;8.598;2022-11-15T13:51:33;1.80;;;1.70;;
6665;SDS011;3369;49.906;8.598;2022-11-15T13:59:51;2.20;;;1.70;;
6665;SDS011;3369;49.906;8.598;2022-11-15T14:02:40;2.13;;;1.67;;
6665;SDS011;3369;49.906;8.598;2022-11-15T14:05:19;3.73;;;1.87;;
6665;SDS011;3369;49.906;8.598;2022-11-15T14:07:59;2.07;;;1.40;;
6665;SDS011;3369;49.906;8.598;2022-11-15T14:10:38;2.20;;;1.73;;
6665;SDS011;3369;49.906;8.598;2022-11-15T14:13:04;1.77;;;1.67;;
6665;SDS011;3369;49.906;8.598;2022-11-15T14:15:51;1.73;;;1.60;;
6665;SDS011;3369;49.906;8.598;2022-11-15T14:21:09;2.23;;;1.90;;
6665;SDS011;3369;49.906;8.598;2022-11-15T14:23:35;3.07;;;2.20;;
6665;SDS011;3369;49.906;8.598;2022-11-15T14:26:01;2.00;;;1.63;;
6665;SDS011;3369;49.906;8.598;2022-11-15T14:28:28;1.57;;;1.47;;
6665;SDS011;3369;49.906;8.598;2022-11-15T14:31:01;1.93;;;1.50;;
6665;SDS011;3369;49.906;8.598;2022-11-15T14:33:32;1.83;;;1.40;;
6665;SDS011;3369;49.906;8.598;2022-11-15T14:55:01;1.43;;;1.30;;
6665;SDS011;3369;49.906;8.598;2022-11-15T14:57:29;3.00;;;1.77;;
6665;SDS011;3369;49.906;8.598;2022-11-15T14:59:54;2.33;;;1.50;;
6665;SDS011;3369;49.906;8.598;2022-11-15T15:02:22;1.50;;;1.40;;
6665;SDS011;3369;49.906;8.598;2022-11-15T15:04:50;1.63;;;1.53;;
6665;SDS011;3369;49.906;8.598;2022-11-15T15:07:16;1.60;;;1.50;;
6665;SDS011;3369;49.906;8.598;2022-11-15T15:09:43;1.53;;;1.23;;
6665;SDS011;3369;49.906;8.598;2022-11-15T15:12:14;1.40;;;1.27;;
6665;SDS011;3369;49.906;8.598;2022-11-15T15:14:42;2.77;;;1.70;;
6665;SDS011;3369;49.906;8.598;2022-11-15T15:17:08;2.10;;;1.90;;
6665;SDS011;3369;49.906;8.598;2022-11-15T15:19:34;2.63;;;1.97;;
6665;SDS011;3369;49.906;8.598;2022-11-15T15:21:59;1.50;;;1.40;;
6665;SDS011;3369;49.906;8.598;2022-11-15T15:24:25;1.97;;;1.50;;
6665;SDS011;3369;49.906;8.598;2022-11-15T15:26:51;1.63;;;1.50;;
6665;SDS011;3369;49.906;8.598;2022-11-15T15:29:16;1.60;;;1.47;;
6665;SDS011;3369;49.906;8.598;2022-11-15T15:31:42;2.73;;;1.93;;
6665;SDS011;3369;49.906;8.598;2022-11-15T15:34:08;2.03;;;1.77;;
6665;SDS011;3369;49.906;8.598;2022-11-15T15:36:33;3.20;;;2.17;;
6665;SDS011;3369;49.906;8.598;2022-11-15T15:38:59;2.60;;;1.80;;
6665;SDS011;3369;49.906;8.598;2022-11-15T15:41:24;3.60;;;2.30;;
6665;SDS011;3369;49.906;8.598;2022-11-15T15:43:50;5.03;;;2.60;;
6665;SDS011;3369;49.906;8.598;2022-11-15T15:46:16;4.20;;;2.40;;
6665;SDS011;3369;49.906;8.598;2022-11-15T15:48:43;2.43;;;1.80;;
6665;SDS011;3369;49.906;8.598;2022-11-15T15:51:09;3.93;;;2.20;;
6665;SDS011;3369;49.906;8.598;2022-11-15T15:53:35;5.20;;;2.43;;
6665;SDS011;3369;49.906;8.598;2022-11-15T15:56:01;3.77;;;2.47;;
6665;SDS011;3369;49.906;8.598;2022-11-15T15:58:27;3.87;;;2.00;;
6665;SDS011;3369;49.906;8.598;2022-11-15T16:00:52;4.00;;;2.37;;
6665;SDS011;3369;49.906;8.598;2022-11-15T16:03:18;2.10;;;1.90;;
6665;SDS011;3369;49.906;8.598;2022-11-15T16:05:44;2.47;;;1.87;;
6665;SDS011;3369;49.906;8.598;2022-11-15T16:08:20;1.97;;;1.77;;
6665;SDS011;3369;49.906;8.598;2022-11-15T16:10:47;2.20;;;1.80;;
6665;SDS011;3369;49.906;8.598;2022-11-15T16:13:13;2.80;;;2.03;;
6665;SDS011;3369;49.906;8.598;2022-11-15T16:15:39;3.37;;;1.93;;
6665;SDS011;3369;49.906;8.598;2022-11-15T16:18:06;2.37;;;1.60;;
6665;SDS011;3369;49.906;8.598;2022-11-15T16:23:08;2.20;;;2.00;;
6665;SDS011;3369;49.906;8.598;2022-11-15T16:25:51;2.17;;;1.90;;
6665;SDS011;3369;49.906;8.598;2022-11-15T16:28:29;2.97;;;2.20;;
6665;SDS011;3369;49.906;8.598;2022-11-15T16:31:09;2.77;;;2.27;;
6665;SDS011;3369;49.906;8.598;2022-11-15T16:33:36;1.60;;;1.50;;
6665;SDS011;3369;49.906;8.598;2022-11-15T16:36:10;2.33;;;2.13;;
6665;SDS011;3369;49.906;8.598;2022-11-15T16:38:48;2.88;;;1.90;;
6665;SDS011;3369;49.906;8.598;2022-11-15T16:41:14;2.07;;;1.63;;
6665;SDS011;3369;49.906;8.598;2022-11-15T16:43:43;1.90;;;1.80;;
6665;SDS011;3369;49.906;8.598;2022-11-15T16:46:14;1.43;;;1.33;;
6665;SDS011;3369;49.906;8.598;2022-11-15T16:48:51;1.50;;;1.40;;
6665;SDS011;3369;49.906;8.598;2022-11-15T16:51:18;1.33;;;1.23;;
6665;SDS011;3369;49.906;8.598;2022-11-15T16:53:44;1.80;;;1.70;;
6665;SDS011;3369;49.906;8.598;2022-11-15T16:58:42;2.83;;;1.87;;
6665;SDS011;3369;49.906;8.598;2022-11-15T17:01:09;1.90;;;1.70;;
6665;SDS011;3369;49.906;8.598;2022-11-15T17:03:46;2.67;;;2.00;;
6665;SDS011;3369;49.906;8.598;2022-11-15T17:06:12;1.80;;;1.70;;
6665;SDS011;3369;49.906;8.598;2022-11-15T17:08:39;2.40;;;1.80;;
6665;SDS011;3369;49.906;8.598;2022-11-15T17:11:06;2.00;;;1.80;;
6665;SDS011;3369;49.906;8.598;2022-11-15T17:13:32;1.57;;;1.47;;
6665;SDS011;3369;49.906;8.598;2022-11-15T17:16:08;1.87;;;1.70;;
6665;SDS011;3369;49.906;8.598;2022-11-15T17:18:37;1.57;;;1.47;;
6665;SDS011;3369;49.906;8.598;2022-11-15T17:21:05;1.30;;;1.20;;
6665;SDS011;3369;49.906;8.598;2022-11-15T17:23:31;1.83;;;1.73;;
6665;SDS011;3369;49.906;8.598;2022-11-15T17:26:01;2.00;;;1.57;;
6665;SDS011;3369;49.906;8.598;2022-11-15T17:28:29;1.50;;;1.40;;
6665;SDS011;3369;49.906;8.598;2022-11-15T17:30:56;1.17;;;1.17;;
6665;SDS011;3369;49.906;8.598;2022-11-15T17:33:21;1.53;;;1.40;;
6665;SDS011;3369;49.906;8.598;2022-11-15T17:35:54;1.53;;;1.43;;
6665;SDS011;3369;49.906;8.598;2022-11-15T17:38:20;1.80;;;1.70;;
6665;SDS011;3369;49.906;8.598;2022-11-15T17:40:46;1.67;;;1.57;;
6665;SDS011;3369;49.906;8.598;2022-11-15T17:43:11;1.67;;;1.57;;
6665;SDS011;3369;49.906;8.598;2022-11-15T17:45:40;1.57;;;1.47;;
6665;SDS011;3369;49.906;8.598;2022-11-15T17:48:06;1.63;;;1.53;;
6665;SDS011;3369;49.906;8.598;2022-11-15T17:50:32;1.60;;;1.50;;
6665;SDS011;3369;49.906;8.598;2022-11-15T17:52:58;2.23;;;2.00;;
6665;SDS011;3369;49.906;8.598;2022-11-15T17:55:24;3.00;;;1.87;;
6665;SDS011;3369;49.906;8.598;2022-11-15T17:57:49;1.90;;;1.80;;
6665;SDS011;3369;49.906;8.598;2022-11-15T18:00:15;1.60;;;1.50;;
6665;SDS011;3369;49.906;8.598;2022-11-15T18:02:44;2.17;;;1.80;;
6665;SDS011;3369;49.906;8.598;2022-11-15T18:05:10;1.77;;;1.67;;
6665;SDS011;3369;49.906;8.598;2022-11-15T18:07:35;2.10;;;1.90;;
6665;SDS011;3369;49.906;8.598;2022-11-15T18:10:01;2.57;;;2.37;;
6665;SDS011;3369;49.906;8.598;2022-11-15T18:12:27;3.60;;;2.97;;
6665;SDS011;3369;49.906;8.598;2022-11-15T18:14:53;4.20;;;3.40;;
6665;SDS011;3369;49.906;8.598;2022-11-15T18:17:18;4.13;;;3.23;;
6665;SDS011;3369;49.906;8.598;2022-11-15T18:19:44;5.13;;;4.07;;
6665;SDS011;3369;49.906;8.598;2022-11-15T18:22:10;5.27;;;3.83;;
6665;SDS011;3369;49.906;8.598;2022-11-15T18:24:35;4.00;;;3.60;;
6665;SDS011;3369;49.906;8.598;2022-11-15T18:27:06;4.13;;;3.53;;
6665;SDS011;3369;49.906;8.598;2022-11-15T18:29:32;3.93;;;3.53;;
6665;SDS011;3369;49.906;8.598;2022-11-15T18:32:02;3.67;;;3.37;;
6665;SDS011;3369;49.906;8.598;2022-11-15T18:34:31;4.00;;;3.07;;
6665;SDS011;3369;49.906;8.598;2022-11-15T18:36:58;3.83;;;3.40;;
6665;SDS011;3369;49.906;8.598;2022-11-15T18:39:25;4.17;;;3.60;;
6665;SDS011;3369;49.906;8.598;2022-11-15T18:41:50;3.73;;;3.37;;
6665;SDS011;3369;49.906;8.598;2022-11-15T18:44:16;4.10;;;3.17;;
6665;SDS011;3369;49.906;8.598;2022-11-15T18:46:42;4.13;;;3.53;;
6665;SDS011;3369;49.906;8.598;2022-11-15T18:49:11;4.07;;;3.27;;
6665;SDS011;3369;49.906;8.598;2022-11-15T18:51:39;3.43;;;3.13;;
6665;SDS011;3369;49.906;8.598;2022-11-15T18:54:06;3.87;;;3.37;;
6665;SDS011;3369;49.906;8.598;2022-11-15T18:56:36;3.60;;;3.30;;
6665;SDS011;3369;49.906;8.598;2022-11-15T18:59:02;3.73;;;3.30;;
6665;SDS011;3369;49.906;8.598;2022-11-15T19:01:30;3.40;;;3.10;;
6665;SDS011;3369;49.906;8.598;2022-11-15T19:04:06;3.53;;;3.23;;
6665;SDS011;3369;49.906;8.598;2022-11-15T19:06:40;4.67;;;3.50;;
6665;SDS011;3369;49.906;8.598;2022-11-15T19:09:07;4.63;;;3.53;;
6665;SDS011;3369;49.906;8.598;2022-11-15T19:11:34;3.67;;;3.30;;
6665;SDS011;3369;49.906;8.598;2022-11-15T19:14:03;5.23;;;4.73;;
6665;SDS011;3369;49.906;8.598;2022-11-15T19:16:31;4.70;;;4.30;;
6665;SDS011;3369;49.906;8.598;2022-11-15T19:19:03;6.47;;;5.00;;
6665;SDS011;3369;49.906;8.598;2022-11-15T19:21:30;5.97;;;5.37;;
6665;SDS011;3369;49.906;8.598;2022-11-15T19:23:57;6.00;;;5.30;;
6665;SDS011;3369;49.906;8.598;2022-11-15T19:26:23;5.60;;;4.97;;
6665;SDS011;3369;49.906;8.598;2022-11-15T19:28:51;5.90;;;5.30;;
6665;SDS011;3369;49.906;8.598;2022-11-15T19:31:18;5.67;;;5.00;;
6665;SDS011;3369;49.906;8.598;2022-11-15T19:33:45;6.07;;;5.47;;
6665;SDS011;3369;49.906;8.598;2022-11-15T19:36:12;7.30;;;6.60;;
6665;SDS011;3369;49.906;8.598;2022-11-15T19:38:43;8.03;;;6.90;;
6665;SDS011;3369;49.906;8.598;2022-11-15T19:41:10;7.63;;;6.47;;
6665;SDS011;3369;49.906;8.598;2022-11-15T19:43:40;9.53;;;6.20;;
6665;SDS011;3369;49.906;8.598;2022-11-15T19:46:06;6.13;;;5.53;;
6665;SDS011;3369;49.906;8.598;2022-11-15T19:48:34;5.70;;;4.87;;
6665;SDS011;3369;49.906;8.598;2022-11-15T19:51:00;5.60;;;5.10;;
6665;SDS011;3369;49.906;8.598;2022-11-15T19:53:27;5.57;;;4.97;;
6665;SDS011;3369;49.906;8.598;2022-11-15T19:55:57;5.50;;;4.67;;
6665;SDS011;3369;49.906;8.598;2022-11-15T19:58:34;5.30;;;4.80;;
6665;SDS011;3369;49.906;8.598;2022-11-15T20:01:07;6.90;;;5.60;;
6665;SDS011;3369;49.906;8.598;2022-11-15T20:03:47;4.87;;;4.37;;
6665;SDS011;3369;49.906;8.598;2022-11-15T20:06:15;5.87;;;4.60;;
6665;SDS011;3369;49.906;8.598;2022-11-15T20:08:43;6.03;;;4.87;;
6665;SDS011;3369;49.906;8.598;2022-11-15T20:11:10;5.40;;;4.60;;
6665;SDS011;3369;49.906;8.598;2022-11-15T20:13:36;5.13;;;4.63;;
6665;SDS011;3369;49.906;8.598;2022-11-15T20:16:03;4.30;;;3.80;;
6665;SDS011;3369;49.906;8.598;2022-11-15T20:18:29;4.20;;;3.80;;
6665;SDS011;3369;49.906;8.598;2022-11-15T20:20:55;5.53;;;4.90;;
6665;SDS011;3369;49.906;8.598;2022-11-15T20:23:23;5.13;;;4.30;;
6665;SDS011;3369;49.906;8.598;2022-11-15T20:25:49;7.27;;;5.10;;
6665;SDS011;3369;49.906;8.598;2022-11-15T20:28:16;5.40;;;4.83;;
6665;SDS011;3369;49.906;8.598;2022-11-15T20:30:44;5.20;;;4.70;;
6665;SDS011;3369;49.906;8.598;2022-11-15T20:33:11;5.27;;;4.77;;